Time;durP1;ratioP1;P1;durP2;ratioP2;P2;SDS_P1;SDS_P2;PMS_P1;PMS_P2;Temp;Humidity;BMP_temperature;BMP_pressure;BME280_temperature;BME280_humidity;BME280_pressure;Samples;Min_cycle;Max_cycle;Signal;HPM_P1;HPM_P2
2021/07/14 00:01:15;;;;;;;31.33;12.32;;;;;;;15.81;100.00;101446.00;5017523;28;20112;-74
2021/07/14 00:03:43;;;;;;;30.77;13.02;;;;;;;15.83;100.00;101439.63;5012624;28;20058;-76
2021/07/14 00:06:32;;;;;;;28.60;14.10;;;;;;;15.85;100.00;101445.81;5013947;28;20160;-75
2021/07/14 00:09:00;;;;;;;27.27;14.05;;;;;;;15.85;100.00;101453.00;5009504;28;20163;-74
2021/07/14 00:11:30;;;;;;;29.88;12.90;;;;;;;15.91;100.00;101454.56;5011374;28;20163;-75
2021/07/14 00:14:04;;;;;;;32.65;14.40;;;;;;;15.87;100.00;101459.19;5014138;28;20112;-69
2021/07/14 00:22:12;;;;;;;30.63;12.65;;;;;;;15.98;100.00;101459.56;5015686;28;20069;-69
2021/07/14 00:24:40;;;;;;;26.77;13.07;;;;;;;16.04;100.00;101455.75;5014629;28;20448;-70
2021/07/14 00:27:10;;;;;;;32.72;13.52;;;;;;;16.01;100.00;101447.81;5016260;28;20148;-70
2021/07/14 00:29:48;;;;;;;31.90;13.18;;;;;;;15.95;100.00;101448.94;5013908;28;20051;-70
2021/07/14 00:32:16;;;;;;;28.45;13.10;;;;;;;16.03;100.00;101446.78;5015209;28;20136;-69
2021/07/14 00:34:45;;;;;;;28.23;12.50;;;;;;;16.05;100.00;101454.78;5016759;28;20069;-70
2021/07/14 00:37:14;;;;;;;31.98;12.90;;;;;;;16.02;100.00;101460.31;5009607;28;20068;-70
2021/07/14 00:39:43;;;;;;;28.80;13.15;;;;;;;16.01;100.00;101454.06;5015053;28;20072;-70
2021/07/14 00:42:12;;;;;;;32.20;14.80;;;;;;;15.98;100.00;101453.31;5012597;28;20070;-69
2021/07/14 00:44:40;;;;;;;27.90;12.90;;;;;;;16.02;100.00;101446.84;5014099;28;20041;-69
2021/07/14 00:47:09;;;;;;;36.22;14.63;;;;;;;15.98;100.00;101454.19;5009890;28;20065;-69
2021/07/14 00:49:37;;;;;;;34.58;16.10;;;;;;;15.96;100.00;101461.47;5008545;28;20068;-70
2021/07/14 00:52:06;;;;;;;36.75;15.18;;;;;;;15.97;100.00;101462.34;5017852;28;20488;-70
2021/07/14 00:54:35;;;;;;;36.95;15.77;;;;;;;15.95;100.00;101464.22;5013061;28;20442;-75
2021/07/14 00:57:03;;;;;;;38.72;16.70;;;;;;;15.93;100.00;101463.44;5014126;28;20168;-75
2021/07/14 00:59:31;;;;;;;37.55;17.63;;;;;;;15.90;100.00;101460.88;5017762;28;20073;-74
2021/07/14 01:01:59;;;;;;;42.00;17.15;;;;;;;15.92;100.00;101467.94;5011673;28;20056;-76
2021/07/14 01:04:30;;;;;;;42.15;18.05;;;;;;;15.93;100.00;101460.72;5016564;28;20439;-75
2021/07/14 01:07:04;;;;;;;44.30;18.60;;;;;;;15.92;100.00;101465.25;5011594;28;20069;-75
2021/07/14 01:09:36;;;;;;;42.15;18.13;;;;;;;15.91;100.00;101473.41;5015025;28;20251;-75
2021/07/14 01:12:11;;;;;;;43.58;17.95;;;;;;;15.96;100.00;101469.53;5010410;28;20072;-75
2021/07/14 01:14:50;;;;;;;46.03;21.05;;;;;;;15.95;100.00;101464.22;5011768;28;20089;-75
2021/07/14 01:17:20;;;;;;;45.05;19.20;;;;;;;15.94;100.00;101460.66;5010764;28;20499;-75
2021/07/14 01:20:09;;;;;;;46.35;18.50;;;;;;;15.99;100.00;101449.72;5009725;28;20123;-70
2021/07/14 01:22:44;;;;;;;42.85;19.42;;;;;;;15.99;100.00;101444.31;5010341;28;20093;-70
2021/07/14 01:25:23;;;;;;;44.97;19.13;;;;;;;15.98;100.00;101450.63;5015309;28;20037;-72
2021/07/14 01:27:53;;;;;;;42.65;18.35;;;;;;;15.97;100.00;101440.81;5009400;28;20132;-75
2021/07/14 01:30:22;;;;;;;39.80;18.20;;;;;;;15.94;100.00;101443.66;5010496;28;20114;-75
2021/07/14 01:32:53;;;;;;;39.72;18.23;;;;;;;15.96;100.00;101445.31;5008081;28;20103;-74
2021/07/14 01:35:27;;;;;;;44.88;18.25;;;;;;;15.97;100.00;101438.09;5015675;28;20139;-75
2021/07/14 01:37:56;;;;;;;38.63;17.00;;;;;;;16.00;100.00;101444.22;5006706;28;20133;-75
2021/07/14 01:40:25;;;;;;;47.92;18.58;;;;;;;15.98;100.00;101438.03;5010903;28;20057;-74
2021/07/14 01:42:58;;;;;;;38.22;15.77;;;;;;;16.02;100.00;101442.38;5009842;28;20380;-75
2021/07/14 01:45:28;;;;;;;35.15;17.33;;;;;;;15.99;100.00;101442.50;5008109;28;20510;-75
2021/07/14 01:47:59;;;;;;;40.78;18.23;;;;;;;16.05;100.00;101450.28;5010268;28;20061;-74
2021/07/14 01:50:29;;;;;;;41.80;17.23;;;;;;;16.03;100.00;101448.63;5009173;28;20095;-75
2021/07/14 01:52:58;;;;;;;35.92;16.77;;;;;;;16.03;100.00;101444.09;5012008;28;20065;-74
2021/07/14 01:55:27;;;;;;;39.35;16.50;;;;;;;16.08;100.00;101456.50;5012560;28;20132;-75
2021/07/14 01:57:59;;;;;;;37.03;16.38;;;;;;;16.01;100.00;101451.38;5009576;28;20187;-75
2021/07/14 02:00:28;;;;;;;44.60;17.20;;;;;;;16.02;100.00;101449.53;5008635;28;20065;-75
2021/07/14 02:03:05;;;;;;;42.08;18.02;;;;;;;16.00;100.00;101438.84;5012383;28;20892;-75
2021/07/14 02:05:34;;;;;;;40.83;17.25;;;;;;;15.99;100.00;101438.94;5011046;28;20061;-75
2021/07/14 02:08:02;;;;;;;41.63;16.98;;;;;;;16.05;100.00;101436.81;5014223;28;20073;-75
2021/07/14 02:10:32;;;;;;;41.58;17.90;;;;;;;16.01;100.00;101429.84;5007775;28;20376;-75
2021/07/14 02:13:03;;;;;;;41.28;16.77;;;;;;;16.03;100.00;101435.16;5008073;28;20459;-75
2021/07/14 02:15:33;;;;;;;35.42;15.60;;;;;;;16.05;100.00;101441.34;5010511;28;20069;-75
2021/07/14 02:18:05;;;;;;;33.97;16.13;;;;;;;16.06;100.00;101441.28;5008869;28;20062;-75
2021/07/14 02:20:33;;;;;;;39.67;16.10;;;;;;;16.06;100.00;101441.28;5012468;28;20089;-75
2021/07/14 02:23:04;;;;;;;39.83;16.58;;;;;;;16.05;100.00;101433.25;5008401;28;20151;-75
2021/07/14 02:25:33;;;;;;;39.30;17.00;;;;;;;16.06;100.00;101429.63;5010082;28;20100;-75
2021/07/14 02:28:03;;;;;;;31.95;15.07;;;;;;;16.09;100.00;101429.50;5013705;28;20045;-74
2021/07/14 02:30:31;;;;;;;34.88;15.52;;;;;;;16.08;100.00;101426.88;5010255;28;20092;-74
2021/07/14 02:33:00;;;;;;;38.78;15.98;;;;;;;16.10;100.00;101425.84;5018775;28;20062;-75
2021/07/14 02:35:30;;;;;;;37.28;16.83;;;;;;;16.12;100.00;101418.56;5012870;28;20061;-74
2021/07/14 02:38:01;;;;;;;33.50;15.70;;;;;;;16.13;100.00;101416.78;5013621;28;20119;-75
2021/07/14 02:40:33;;;;;;;32.97;14.57;;;;;;;16.15;100.00;101415.75;5020927;28;21679;-75
2021/07/14 02:43:05;;;;;;;33.67;14.80;;;;;;;16.14;100.00;101414.00;5014543;28;20065;-75
2021/07/14 02:45:37;;;;;;;32.03;13.25;;;;;;;16.18;100.00;101421.00;5017321;28;20464;-75
2021/07/14 02:48:06;;;;;;;37.05;15.65;;;;;;;16.15;100.00;101421.13;5013337;28;20506;-75
2021/07/14 02:50:35;;;;;;;34.67;15.48;;;;;;;16.13;100.00;101423.03;5016269;28;20069;-74
2021/07/14 02:53:08;;;;;;;41.70;17.65;;;;;;;16.15;100.00;101428.34;5016258;28;20473;-75
2021/07/14 02:55:38;;;;;;;33.70;16.52;;;;;;;16.17;100.00;101423.75;5014046;28;20124;-73
2021/07/14 02:58:09;;;;;;;36.53;15.82;;;;;;;16.19;100.00;101428.13;5019311;28;20065;-74
2021/07/14 03:00:38;;;;;;;33.42;15.80;;;;;;;16.20;100.00;101421.78;5014720;28;20069;-73
2021/07/14 03:03:07;;;;;;;37.63;16.27;;;;;;;16.21;100.00;101422.69;5016269;28;20314;-73
2021/07/14 03:05:36;;;;;;;32.85;14.75;;;;;;;16.19;100.00;101413.78;5013192;28;20065;-73
2021/07/14 03:08:06;;;;;;;29.48;14.95;;;;;;;16.22;100.00;101408.25;5015689;28;20627;-73
2021/07/14 03:10:35;;;;;;;34.30;14.20;;;;;;;16.17;100.00;101404.91;5014953;28;20073;-73
2021/07/14 03:13:05;;;;;;;31.45;14.70;;;;;;;16.08;100.00;101416.97;5011000;28;20065;-74
2021/07/14 03:15:38;;;;;;;31.48;15.07;;;;;;;16.17;100.00;101418.38;5016562;28;20240;-73
2021/07/14 03:18:11;;;;;;;34.75;16.33;;;;;;;16.09;100.00;101425.91;5015999;28;20189;-74
2021/07/14 03:20:40;;;;;;;37.22;15.23;;;;;;;16.07;100.00;101409.84;5013412;28;20069;-73
2021/07/14 03:23:08;;;;;;;29.77;14.43;;;;;;;16.08;100.00;101400.81;5017817;28;20041;-72
2021/07/14 03:25:36;;;;;;;32.67;15.60;;;;;;;16.06;100.00;101410.78;5015332;28;20061;-73
2021/07/14 03:28:06;;;;;;;27.88;13.75;;;;;;;16.14;100.00;101410.44;5016184;28;20072;-72
2021/07/14 03:30:36;;;;;;;34.25;15.73;;;;;;;16.06;100.00;101400.88;5012661;28;20327;-72
2021/07/14 03:33:04;;;;;;;34.38;16.60;;;;;;;16.12;100.00;101409.63;5014582;28;20742;-72
2021/07/14 03:35:32;;;;;;;33.75;15.88;;;;;;;16.07;100.00;101407.13;5020210;28;20066;-69
2021/07/14 03:38:03;;;;;;;31.63;13.38;;;;;;;16.13;100.00;101411.38;5013380;28;20049;-69
2021/07/14 03:40:32;;;;;;;31.30;15.35;;;;;;;16.11;100.00;101400.69;5015445;28;20444;-68
2021/07/14 03:43:01;;;;;;;35.88;15.32;;;;;;;16.11;100.00;101402.50;5015935;28;20441;-68
2021/07/14 03:45:31;;;;;;;26.63;14.55;;;;;;;16.13;100.00;101395.25;5014799;28;20097;-68
2021/07/14 03:48:00;;;;;;;32.50;15.75;;;;;;;16.09;100.00;101397.19;5016293;28;20061;-68
2021/07/14 03:50:28;;;;;;;27.02;14.82;;;;;;;16.08;100.00;101402.66;5016876;28;20107;-68
2021/07/14 03:52:56;;;;;;;37.45;16.02;;;;;;;16.08;100.00;101397.28;5012708;28;20061;-68
2021/07/14 03:55:27;;;;;;;29.42;14.82;;;;;;;16.07;100.00;101407.13;5017542;28;20146;-70
2021/07/14 03:57:55;;;;;;;32.42;15.55;;;;;;;16.11;100.00;101399.81;5013629;28;20068;-74
2021/07/14 04:00:23;;;;;;;30.52;15.20;;;;;;;16.08;100.00;101416.97;5021174;28;20061;-74
2021/07/14 04:02:52;;;;;;;33.95;16.23;;;;;;;16.05;100.00;101422.50;5010944;28;20265;-73
2021/07/14 04:05:21;;;;;;;32.17;16.42;;;;;;;16.06;100.00;101416.19;5013384;28;20058;-72
2021/07/14 04:07:53;;;;;;;42.25;17.13;;;;;;;16.09;100.00;101407.06;5018049;28;20062;-72
2021/07/14 04:10:21;;;;;;;39.08;17.25;;;;;;;16.11;100.00;101407.91;5015511;28;20073;-68
2021/07/14 04:12:50;;;;;;;34.50;18.92;;;;;;;16.03;100.00;101408.25;5017277;28;20077;-69
2021/07/14 04:15:18;;;;;;;45.45;22.80;;;;;;;16.00;100.00;101408.38;5013736;28;20073;-70
2021/07/14 04:17:45;;;;;;;46.88;23.67;;;;;;;16.01;100.00;101411.00;5014459;28;20138;-69
2021/07/14 04:20:14;;;;;;;44.85;23.00;;;;;;;16.06;100.00;101400.03;5013321;28;20065;-68
2021/07/14 04:22:43;;;;;;;49.97;23.63;;;;;;;16.03;100.00;101398.34;5013985;28;20142;-69
2021/07/14 04:25:12;;;;;;;42.75;20.05;;;;;;;15.99;100.00;101393.19;5016302;28;20131;-68
2021/07/14 04:27:40;;;;;;;43.60;21.15;;;;;;;16.05;100.00;101404.50;5015591;28;20054;-69
2021/07/14 04:30:09;;;;;;;44.88;22.17;;;;;;;16.04;100.00;101402.78;5011398;28;20068;-73
2021/07/14 04:32:36;;;;;;;40.35;20.83;;;;;;;15.99;100.00;101394.06;5014520;28;20116;-73
2021/07/14 04:35:05;;;;;;;36.80;19.13;;;;;;;16.01;100.00;101393.97;5008574;28;20076;-69
2021/07/14 04:37:33;;;;;;;38.58;19.23;;;;;;;15.98;100.00;101408.44;5015789;28;20061;-69
2021/07/14 04:40:02;;;;;;;42.90;17.25;;;;;;;15.99;100.00;101406.66;5011849;28;20061;-69
2021/07/14 04:42:30;;;;;;;39.75;18.08;;;;;;;16.01;100.00;101411.00;5011877;28;20349;-73
2021/07/14 04:44:57;;;;;;;30.50;15.40;;;;;;;16.04;100.00;101410.88;5012872;28;20069;-73
2021/07/14 04:47:25;;;;;;;32.30;16.00;;;;;;;16.03;100.00;101410.94;5007915;28;20058;-73
2021/07/14 04:49:53;;;;;;;36.33;17.48;;;;;;;16.04;100.00;101412.69;5014982;28;20561;-73
2021/07/14 04:52:21;;;;;;;33.70;16.90;;;;;;;16.03;100.00;101416.31;5014114;28;20521;-73
2021/07/14 04:54:49;;;;;;;33.13;16.85;;;;;;;16.03;100.00;101414.47;5012800;28;20069;-73
2021/07/14 04:57:18;;;;;;;32.70;16.02;;;;;;;16.08;100.00;101413.41;5015187;28;20061;-69
2021/07/14 04:59:46;;;;;;;29.55;15.27;;;;;;;16.05;100.00;101401.81;5012746;28;20073;-69
2021/07/14 05:02:13;;;;;;;35.17;17.63;;;;;;;16.03;100.00;101398.34;5016389;28;20065;-69
2021/07/14 05:04:41;;;;;;;33.72;16.58;;;;;;;16.04;100.00;101410.00;5020262;28;20100;-69
2021/07/14 05:07:09;;;;;;;40.90;18.20;;;;;;;16.06;100.00;101417.03;5011399;28;20062;-69
2021/07/14 05:09:37;;;;;;;33.78;17.50;;;;;;;16.04;100.00;101408.16;5016983;28;20053;-69
2021/07/14 05:12:06;;;;;;;32.35;17.15;;;;;;;16.00;100.00;101416.44;5012273;28;20512;-69
2021/07/14 05:14:35;;;;;;;44.03;17.60;;;;;;;16.00;100.00;101420.00;5013486;28;20424;-69
2021/07/14 05:17:03;;;;;;;36.80;19.25;;;;;;;16.02;100.00;101418.16;5014853;28;20065;-69
2021/07/14 05:19:30;;;;;;;36.22;16.95;;;;;;;15.98;100.00;101418.34;5010451;28;20061;-69
2021/07/14 05:21:58;;;;;;;48.30;19.08;;;;;;;15.96;100.00;101422.94;5015161;28;20084;-69
2021/07/14 05:24:26;;;;;;;40.83;17.80;;;;;;;15.96;100.00;101412.16;5010288;28;20116;-69
2021/07/14 05:26:54;;;;;;;39.30;18.38;;;;;;;15.95;100.00;101410.41;5011819;28;20050;-70
2021/07/14 05:29:22;;;;;;;34.97;16.17;;;;;;;15.93;100.00;101415.84;5013783;28;20381;-70
2021/07/14 05:31:51;;;;;;;34.20;16.27;;;;;;;15.93;100.00;101421.22;5012532;28;20093;-69
2021/07/14 05:34:19;;;;;;;39.22;16.35;;;;;;;15.95;100.00;101418.47;5016964;28;20065;-69
2021/07/14 05:36:47;;;;;;;34.08;16.75;;;;;;;15.94;100.00;101430.19;5009995;28;20066;-68
2021/07/14 05:39:15;;;;;;;33.42;15.52;;;;;;;15.94;100.00;101432.91;5013494;28;20061;-69
2021/07/14 05:41:44;;;;;;;34.22;16.55;;;;;;;15.99;100.00;101434.44;5013245;28;20288;-73
2021/07/14 05:44:11;;;;;;;38.83;16.98;;;;;;;15.93;100.00;101440.06;5011004;28;20073;-74
2021/07/14 05:46:39;;;;;;;37.78;15.00;;;;;;;15.91;100.00;101441.09;5018284;28;20561;-73
2021/07/14 05:49:08;;;;;;;37.83;17.08;;;;;;;15.90;100.00;101450.97;5012603;28;20068;-74
2021/07/14 05:51:36;;;;;;;36.67;17.65;;;;;;;15.87;100.00;101461.91;5016383;28;20065;-74
2021/07/14 05:54:04;;;;;;;38.20;18.58;;;;;;;15.82;100.00;101466.59;5018292;28;20067;-74
2021/07/14 05:56:32;;;;;;;42.40;18.67;;;;;;;15.85;100.00;101472.72;5013642;28;20097;-74
2021/07/14 05:59:00;;;;;;;33.25;16.35;;;;;;;15.83;100.00;101468.34;5011494;28;20058;-73
2021/07/14 06:01:28;;;;;;;33.45;16.75;;;;;;;15.79;100.00;101472.97;5013895;28;20069;-73
2021/07/14 06:03:56;;;;;;;41.67;17.90;;;;;;;15.82;100.00;101474.69;5010928;28;20111;-74
2021/07/14 06:06:28;;;;;;;38.05;17.40;;;;;;;15.79;100.00;101472.97;5014145;28;20406;-74
2021/07/14 06:08:57;;;;;;;34.75;15.77;;;;;;;15.79;100.00;101480.19;5009767;28;20257;-73
2021/07/14 06:11:24;;;;;;;38.03;15.75;;;;;;;15.80;100.00;101471.16;5012190;28;20065;-74
2021/07/14 06:13:52;;;;;;;35.78;15.93;;;;;;;15.79;100.00;101470.28;5004789;28;20617;-74
2021/07/14 06:16:20;;;;;;;29.92;15.02;;;;;;;15.81;100.00;101476.47;5009565;28;20061;-74
2021/07/14 06:18:48;;;;;;;31.38;15.25;;;;;;;15.82;100.00;101472.00;5013269;28;20161;-75
2021/07/14 06:21:16;;;;;;;30.17;14.15;;;;;;;15.78;100.00;101475.72;5009557;28;20053;-74
2021/07/14 06:23:46;;;;;;;29.00;14.90;;;;;;;15.80;100.00;101472.06;5013991;28;20072;-74
2021/07/14 06:26:14;;;;;;;33.70;15.25;;;;;;;15.80;100.00;101477.44;5015065;28;20061;-74
2021/07/14 06:28:42;;;;;;;34.97;15.13;;;;;;;15.78;100.00;101465.88;5008532;28;20073;-74
2021/07/14 06:31:10;;;;;;;28.02;13.70;;;;;;;15.82;100.00;101478.22;5014611;28;20065;-75
2021/07/14 06:33:40;;;;;;;31.55;15.25;;;;;;;15.82;100.00;101478.22;5010774;28;20076;-73
2021/07/14 06:36:09;;;;;;;30.20;14.80;;;;;;;15.78;100.00;101473.94;5010643;28;20057;-73
2021/07/14 06:38:37;;;;;;;25.73;13.98;;;;;;;15.84;100.00;101470.97;5013366;28;20842;-74
2021/07/14 06:41:06;;;;;;;30.83;14.43;;;;;;;15.77;100.00;101474.88;5009567;28;20059;-74
2021/07/14 06:43:45;;;;;;;28.17;14.02;;;;;;;15.76;100.00;101474.94;5014201;28;20395;-73
2021/07/14 06:46:15;;;;;;;34.72;14.52;;;;;;;15.78;100.00;101475.72;5012304;28;20077;-73
2021/07/14 06:48:43;;;;;;;33.10;15.75;;;;;;;15.81;100.00;101476.47;5014018;28;20069;-73
2021/07/14 06:51:11;;;;;;;32.75;13.80;;;;;;;15.82;100.00;101477.38;5015530;28;20546;-73
2021/07/14 06:53:39;;;;;;;31.60;13.65;;;;;;;15.84;100.00;101473.66;5008111;28;20073;-74
2021/07/14 06:56:08;;;;;;;27.90;14.80;;;;;;;15.84;100.00;101473.66;5011418;28;20042;-73
2021/07/14 06:58:39;;;;;;;31.85;14.77;;;;;;;15.90;100.00;101479.69;5015603;28;20050;-73
2021/07/14 07:01:07;;;;;;;27.80;13.40;;;;;;;15.95;100.00;101475.84;5006883;28;20074;-73
2021/07/14 07:03:36;;;;;;;29.17;14.20;;;;;;;15.92;100.00;101480.50;5014671;28;20096;-73
2021/07/14 07:06:05;;;;;;;28.20;13.85;;;;;;;15.97;100.00;101481.19;5000469;28;20245;-73
2021/07/14 07:08:34;;;;;;;33.25;14.75;;;;;;;15.96;100.00;101487.53;5005259;28;20065;-73
2021/07/14 07:11:02;;;;;;;34.13;15.02;;;;;;;15.92;100.00;101486.78;5012173;28;20066;-73
2021/07/14 07:13:32;;;;;;;31.10;14.75;;;;;;;15.94;100.00;101475.94;5005577;28;20069;-73
2021/07/14 07:16:01;;;;;;;31.17;14.75;;;;;;;15.96;100.00;101485.69;5010847;28;20065;-73
2021/07/14 07:18:30;;;;;;;30.77;15.32;;;;;;;15.87;100.00;101478.91;5005271;28;20534;-73
2021/07/14 07:20:58;;;;;;;35.42;16.27;;;;;;;15.90;100.00;101482.41;5007536;28;20068;-73
2021/07/14 07:23:26;;;;;;;34.53;14.65;;;;;;;15.94;100.00;101481.34;5009976;28;20318;-73
2021/07/14 07:25:55;;;;;;;33.13;15.32;;;;;;;15.97;100.00;101476.69;5010602;28;20071;-73
2021/07/14 07:28:27;;;;;;;34.42;16.73;;;;;;;15.99;100.00;101473.94;5015133;28;20061;-73
2021/07/14 07:30:56;;;;;;;31.88;15.82;;;;;;;16.03;99.80;101473.69;5015740;28;20066;-74
2021/07/14 07:33:24;;;;;;;34.05;16.92;;;;;;;16.02;99.63;101480.03;5016940;28;20061;-73
2021/07/14 07:35:52;;;;;;;33.33;14.73;;;;;;;16.03;99.68;101479.09;5018992;28;20077;-73
2021/07/14 07:38:20;;;;;;;34.90;15.07;;;;;;;16.06;99.36;101465.50;5013644;28;20341;-73
2021/07/14 07:40:51;;;;;;;30.67;14.85;;;;;;;16.10;99.19;101468.06;5013078;28;20065;-73
2021/07/14 07:43:20;;;;;;;29.33;13.60;;;;;;;16.16;98.30;101465.97;5010964;28;20042;-73
2021/07/14 07:45:48;;;;;;;25.50;12.95;;;;;;;16.27;97.71;101462.75;5012975;28;20069;-73
2021/07/14 07:48:17;;;;;;;28.92;13.38;;;;;;;16.32;97.06;101459.88;5013680;28;20049;-73
2021/07/14 07:50:45;;;;;;;27.33;14.02;;;;;;;16.39;96.79;101455.94;5012328;28;20111;-73
2021/07/14 07:53:14;;;;;;;27.85;13.55;;;;;;;16.39;96.26;101461.31;5010549;28;20456;-73
2021/07/14 07:55:42;;;;;;;24.88;12.98;;;;;;;16.38;95.95;101465.84;5015109;28;20072;-73
2021/07/14 07:58:10;;;;;;;23.00;11.65;;;;;;;16.41;96.04;101470.19;5011766;28;20085;-70
2021/07/14 08:00:38;;;;;;;25.13;12.10;;;;;;;16.40;96.28;101465.78;5017648;28;20127;-70
2021/07/14 08:03:06;;;;;;;37.22;12.68;;;;;;;16.47;96.51;101474.44;5009837;28;20487;-69
2021/07/14 08:05:35;;;;;;;25.70;12.18;;;;;;;16.55;95.76;101461.47;5012969;28;20061;-69
2021/07/14 08:08:05;;;;;;;24.52;11.60;;;;;;;16.62;94.93;101462.94;5012306;28;20053;-70
2021/07/14 08:10:33;;;;;;;23.80;12.43;;;;;;;16.60;95.32;101468.41;5008113;28;21068;-69
2021/07/14 08:13:02;;;;;;;31.30;14.80;;;;;;;16.59;95.89;101463.09;5011270;28;20072;-70
2021/07/14 08:15:30;;;;;;;31.40;12.98;;;;;;;16.59;95.94;101469.34;5011301;28;20053;-71
2021/07/14 08:17:58;;;;;;;30.25;14.52;;;;;;;16.59;95.92;101477.41;5011442;28;20089;-70
2021/07/14 08:20:25;;;;;;;27.17;14.23;;;;;;;16.60;96.28;101473.78;5013919;28;20155;-70
2021/07/14 08:22:56;;;;;;;29.98;13.48;;;;;;;16.61;96.04;101478.22;5008283;28;20089;-70
2021/07/14 08:25:25;;;;;;;33.22;14.88;;;;;;;16.63;96.17;101470.06;5012978;28;20061;-70
2021/07/14 08:27:52;;;;;;;32.38;14.70;;;;;;;16.77;95.98;101470.28;5008731;28;20068;-70
2021/07/14 08:30:20;;;;;;;26.75;12.05;;;;;;;16.84;95.14;101470.91;5010812;28;20257;-69
2021/07/14 08:32:48;;;;;;;25.52;12.70;;;;;;;16.90;95.17;101472.44;5014778;28;20065;-70
2021/07/14 08:35:16;;;;;;;24.50;11.20;;;;;;;16.85;95.03;101467.25;5011507;28;20741;-70
2021/07/14 08:37:45;;;;;;;20.30;11.15;;;;;;;16.93;94.89;101472.28;5011747;28;20057;-69
2021/07/14 08:40:15;;;;;;;22.40;10.82;;;;;;;17.11;94.55;101466.00;5010326;28;20751;-69
2021/07/14 08:42:43;;;;;;;25.77;12.38;;;;;;;16.97;94.62;101473.88;5012079;28;20176;-70
2021/07/14 08:45:17;;;;;;;22.45;10.80;;;;;;;16.88;95.35;101475.19;5016079;28;20332;-70
2021/07/14 08:47:46;;;;;;;22.55;10.00;;;;;;;16.83;95.71;101470.94;5013362;28;20061;-70
2021/07/14 08:50:19;;;;;;;18.88;9.75;;;;;;;16.89;94.97;101473.38;5013326;28;21538;-74
2021/07/14 08:52:49;;;;;;;18.65;9.35;;;;;;;16.81;95.18;101479.97;5009112;28;20066;-74
2021/07/14 08:55:20;;;;;;;21.30;9.48;;;;;;;16.81;95.45;101479.09;5015804;28;20076;-73
2021/07/14 08:57:48;;;;;;;20.00;9.02;;;;;;;16.87;95.12;101477.97;5013866;28;20324;-73
2021/07/14 09:00:19;;;;;;;18.73;8.35;;;;;;;16.84;95.48;101469.97;5008804;28;20137;-73
2021/07/14 09:02:47;;;;;;;18.92;9.07;;;;;;;16.85;95.41;101477.16;5013682;28;20127;-73
2021/07/14 09:05:16;;;;;;;18.42;8.32;;;;;;;16.85;95.55;101478.03;5013168;28;20089;-76
2021/07/14 09:07:44;;;;;;;18.33;8.77;;;;;;;16.84;95.11;101470.91;5011055;28;20053;-73
2021/07/14 09:10:14;;;;;;;16.45;8.38;;;;;;;16.88;95.58;101477.88;5016176;28;20065;-72
2021/07/14 09:12:46;;;;;;;17.50;9.60;;;;;;;16.86;95.10;101476.22;5012394;28;20070;-72
2021/07/14 09:15:15;;;;;;;18.13;9.15;;;;;;;16.96;94.98;101475.69;5012503;28;20084;-72
2021/07/14 09:17:45;;;;;;;18.52;8.38;;;;;;;16.89;94.83;101468.88;5010495;28;20053;-72
2021/07/14 09:20:16;;;;;;;15.77;7.97;;;;;;;16.83;95.12;101474.50;5009313;28;21091;-73
2021/07/14 09:22:44;;;;;;;14.38;7.53;;;;;;;16.78;95.21;101474.72;5014582;28;20517;-73
2021/07/14 09:25:14;;;;;;;15.43;8.00;;;;;;;16.90;95.21;101472.44;5010051;28;20175;-73
2021/07/14 09:27:55;;;;;;;18.27;7.65;;;;;;;16.86;95.07;101474.41;5008757;28;20120;-73
2021/07/14 09:30:24;;;;;;;17.05;7.88;;;;;;;16.87;95.01;101477.97;5012438;28;20065;-73
2021/07/14 09:32:55;;;;;;;16.33;7.97;;;;;;;17.00;94.64;101479.13;5007962;28;20101;-72
2021/07/14 09:35:28;;;;;;;17.30;8.73;;;;;;;16.98;94.88;101472.94;5012473;28;20080;-73
2021/07/14 09:37:57;;;;;;;15.68;8.68;;;;;;;17.06;94.71;101475.22;5008976;28;20104;-73
2021/07/14 09:40:26;;;;;;;17.58;8.05;;;;;;;17.16;94.73;101482.81;5011443;28;20061;-73
2021/07/14 09:42:59;;;;;;;18.38;8.70;;;;;;;16.99;95.20;101477.34;5008457;28;20622;-71
2021/07/14 09:45:48;;;;;;;16.47;8.13;;;;;;;16.90;95.18;101481.38;5005697;28;20065;-70
2021/07/14 09:48:22;;;;;;;18.35;10.25;;;;;;;16.84;95.79;101472.69;5011062;28;20221;-70
2021/07/14 09:50:54;;;;;;;20.48;8.52;;;;;;;17.01;95.44;101472.78;5009745;28;20103;-70
2021/07/14 09:53:23;;;;;;;17.80;9.20;;;;;;;16.98;95.00;101471.09;5010208;28;20089;-71
2021/07/14 09:55:52;;;;;;;18.73;9.65;;;;;;;16.81;95.19;101471.88;5010943;28;20060;-73
2021/07/14 09:58:27;;;;;;;22.85;10.10;;;;;;;16.95;94.70;101467.69;5008487;28;20111;-70
2021/07/14 10:00:57;;;;;;;20.33;9.65;;;;;;;17.04;94.16;101469.91;5012772;28;20054;-71
2021/07/14 10:03:32;;;;;;;17.58;9.02;;;;;;;16.94;94.11;101480.31;5010053;28;20066;-70
2021/07/14 10:06:02;;;;;;;19.35;9.93;;;;;;;17.02;94.33;101471.81;5014770;28;20076;-70
2021/07/14 10:08:30;;;;;;;19.80;11.18;;;;;;;17.01;94.22;101475.47;5007111;28;21028;-68
2021/07/14 10:11:18;;;;;;;20.77;10.13;;;;;;;17.10;94.22;101477.72;5010192;28;20061;-69
2021/07/14 10:13:59;;;;;;;24.02;11.30;;;;;;;17.26;93.48;101466.16;5009334;28;20395;-69
2021/07/14 10:16:29;;;;;;;25.02;11.23;;;;;;;17.34;93.20;101474.75;5010706;28;20069;-69
2021/07/14 10:19:03;;;;;;;24.55;11.85;;;;;;;17.23;92.84;101479.78;5013049;28;20057;-70
2021/07/14 10:21:33;;;;;;;25.05;11.95;;;;;;;17.33;92.81;101487.38;5008721;28;20077;-70
2021/07/14 10:24:01;;;;;;;28.50;11.05;;;;;;;17.30;92.72;101479.44;5011776;28;20578;-70
2021/07/14 10:26:30;;;;;;;23.08;11.32;;;;;;;17.31;92.55;101489.25;5009952;28;20061;-69
2021/07/14 10:28:59;;;;;;;20.73;10.82;;;;;;;17.30;92.27;101494.75;5008982;28;20083;-73
2021/07/14 10:31:27;;;;;;;23.05;11.32;;;;;;;17.37;92.65;101501.56;5008269;28;20127;-68
2021/07/14 10:33:56;;;;;;;27.55;11.65;;;;;;;17.27;92.95;101502.97;5006260;28;20101;-71
2021/07/14 10:36:27;;;;;;;22.08;10.93;;;;;;;17.27;93.41;101513.78;5007606;28;20104;-71
2021/07/14 10:38:59;;;;;;;21.70;11.02;;;;;;;17.37;92.66;101504.28;5010231;28;20085;-73
2021/07/14 10:41:28;;;;;;;20.05;9.95;;;;;;;17.44;91.87;101505.69;5007648;28;20168;-72
2021/07/14 10:43:57;;;;;;;19.02;9.45;;;;;;;17.63;90.73;101505.63;5008407;28;20077;-69
2021/07/14 10:46:28;;;;;;;18.67;8.20;;;;;;;17.66;90.17;101502.78;5008947;28;20350;-71
2021/07/14 10:48:58;;;;;;;17.48;8.40;;;;;;;17.94;90.10;101495.97;5011769;28;20066;-71
2021/07/14 10:51:27;;;;;;;14.68;8.05;;;;;;;17.76;90.56;101500.50;5014069;28;20376;-70
2021/07/14 10:53:58;;;;;;;15.88;8.15;;;;;;;17.70;90.83;101493.56;5009019;28;20068;-70
2021/07/14 10:56:27;;;;;;;15.45;8.30;;;;;;;17.44;92.01;101496.75;5014915;28;20065;-71
2021/07/14 10:58:56;;;;;;;21.23;9.70;;;;;;;17.45;92.66;101495.78;5009881;28;20318;-70
2021/07/14 11:01:41;;;;;;;20.30;10.07;;;;;;;17.42;93.28;101488.72;5016078;28;20368;-69
2021/07/14 11:04:32;;;;;;;19.27;9.98;;;;;;;17.51;92.62;101492.78;5014728;28;20066;-72
2021/07/14 11:07:03;;;;;;;19.17;8.32;;;;;;;17.58;92.67;101496.03;5011589;28;20460;-74
2021/07/14 11:09:32;;;;;;;17.30;8.73;;;;;;;17.36;93.31;101503.38;5017133;28;20069;-74
2021/07/14 11:12:02;;;;;;;16.23;8.93;;;;;;;17.53;92.62;101490.88;5009479;28;20042;-74
2021/07/14 11:14:36;;;;;;;13.90;8.23;;;;;;;17.54;93.16;101495.31;5011598;28;20069;-73
2021/07/14 11:17:07;;;;;;;16.02;8.70;;;;;;;17.42;94.06;101495.91;5013288;28;20116;-74
2021/07/14 11:19:48;;;;;;;15.95;8.80;;;;;;;17.38;94.01;101486.25;5013791;28;20076;-74
2021/07/14 11:22:16;;;;;;;16.92;9.10;;;;;;;17.49;93.35;101490.16;5014908;28;20057;-73